Fort Tilden, New York
Current Conditions -  °F | °C
As of 12:51 PM on Monday 22 Dec 2014 (Local Time) from KJFK Reporting Station
Overcast Overcast  
Wind Chill: 43°   Ceiling: 1500
Heat Index: 46°   Visibility: 10mi
Dew Point: 38°   Wind: 6mph
Humidity: 73%   Direction: 60°ENE
Pressure: 30.26"   Gusts: NA
Location:  40.5647°N, 73.8835°W
Report Text: KJFK 221751Z 06005KT 10SM FEW011 BKN015 OVC034 08/03 A3026 RMK AO2 SLP246 T00780033 10078 20033 58023 $
Loading
Personal Weather Stations






























Interactive Weather Map New forecast layout! Learn more

10-Day Weather Forecast

Advertisements
Track Severe Weather on mobile